sensor_id;sensor_type;location;lat;lon;timestamp;pressure;altitude;pressure_sealevel;temperature;humidity
17072;BME280;7731;50.720;6.912;2023-02-11T00:00:56;101948.81;;;5.08;100.00
17072;BME280;7731;50.720;6.912;2023-02-11T00:03:26;101946.25;;;5.09;100.00
17072;BME280;7731;50.720;6.912;2023-02-11T00:05:58;101944.56;;;5.08;100.00
17072;BME280;7731;50.720;6.912;2023-02-11T00:08:28;101947.09;;;5.10;100.00
17072;BME280;7731;50.720;6.912;2023-02-11T00:10:58;101959.81;;;5.05;100.00
17072;BME280;7731;50.720;6.912;2023-02-11T00:13:31;101952.19;;;5.07;100.00
17072;BME280;7731;50.720;6.912;2023-02-11T00:16:06;101948.78;;;5.05;100.00
17072;BME280;7731;50.720;6.912;2023-02-11T00:18:37;101940.28;;;4.95;100.00
17072;BME280;7731;50.720;6.912;2023-02-11T00:21:08;101928.34;;;4.80;100.00
17072;BME280;7731;50.720;6.912;2023-02-11T00:23:39;101931.72;;;4.76;100.00
17072;BME280;7731;50.720;6.912;2023-02-11T00:26:14;101930.88;;;4.72;100.00
17072;BME280;7731;50.720;6.912;2023-02-11T00:28:49;101931.69;;;4.67;100.00
17072;BME280;7731;50.720;6.912;2023-02-11T00:31:22;101936.75;;;4.62;100.00
17072;BME280;7731;50.720;6.912;2023-02-11T00:33:54;101929.06;;;4.46;100.00
17072;BME280;7731;50.720;6.912;2023-02-11T00:36:26;101934.16;;;4.50;100.00
17072;BME280;7731;50.720;6.912;2023-02-11T00:38:58;101925.91;;;5.15;100.00
17072;BME280;7731;50.720;6.912;2023-02-11T00:41:29;101919.84;;;4.75;100.00
17072;BME280;7731;50.720;6.912;2023-02-11T00:44:03;101921.47;;;4.59;100.00
17072;BME280;7731;50.720;6.912;2023-02-11T00:46:35;101918.06;;;4.55;100.00
17072;BME280;7731;50.720;6.912;2023-02-11T00:49:05;101920.59;;;4.47;100.00
17072;BME280;7731;50.720;6.912;2023-02-11T00:51:36;101918.00;;;4.38;100.00
17072;BME280;7731;50.720;6.912;2023-02-11T00:54:06;101923.91;;;4.34;100.00
17072;BME280;7731;50.720;6.912;2023-02-11T00:56:37;101923.88;;;4.28;100.00
17072;BME280;7731;50.720;6.912;2023-02-11T00:59:13;101925.50;;;4.17;100.00
17072;BME280;7731;50.720;6.912;2023-02-11T01:01:43;101909.31;;;4.05;100.00
17072;BME280;7731;50.720;6.912;2023-02-11T01:04:13;101914.38;;;3.99;100.00
17072;BME280;7731;50.720;6.912;2023-02-11T01:06:43;101905.00;;;3.89;100.00
17072;BME280;7731;50.720;6.912;2023-02-11T01:09:15;101909.22;;;3.90;100.00
17072;BME280;7731;50.720;6.912;2023-02-11T01:11:50;101901.47;;;3.73;100.00
17072;BME280;7731;50.720;6.912;2023-02-11T01:14:22;101908.44;;;3.97;100.00
17072;BME280;7731;50.720;6.912;2023-02-11T01:16:53;101905.97;;;4.13;100.00
17072;BME280;7731;50.720;6.912;2023-02-11T01:19:23;101897.59;;;4.26;100.00
17072;BME280;7731;50.720;6.912;2023-02-11T01:21:53;101916.97;;;4.11;100.00
17072;BME280;7731;50.720;6.912;2023-02-11T01:24:23;101917.78;;;4.01;100.00
17072;BME280;7731;50.720;6.912;2023-02-11T01:26:53;101917.00;;;4.15;100.00
17072;BME280;7731;50.720;6.912;2023-02-11T01:29:28;101905.16;;;4.14;100.00
17072;BME280;7731;50.720;6.912;2023-02-11T01:32:00;101906.72;;;3.99;100.00
17072;BME280;7731;50.720;6.912;2023-02-11T01:34:30;101911.81;;;3.99;100.00
17072;BME280;7731;50.720;6.912;2023-02-11T01:37:00;101908.47;;;4.03;100.00
17072;BME280;7731;50.720;6.912;2023-02-11T01:39:32;101916.13;;;4.06;100.00
17072;BME280;7731;50.720;6.912;2023-02-11T01:42:05;101917.84;;;4.10;100.00
17072;BME280;7731;50.720;6.912;2023-02-11T01:44:38;101921.84;;;3.78;100.00
17072;BME280;7731;50.720;6.912;2023-02-11T01:47:09;101924.25;;;3.59;100.00
17072;BME280;7731;50.720;6.912;2023-02-11T01:49:45;101917.41;;;3.50;100.00
17072;BME280;7731;50.720;6.912;2023-02-11T01:52:22;101924.97;;;3.43;100.00
17072;BME280;7731;50.720;6.912;2023-02-11T01:55:00;101922.19;;;3.16;100.00
17072;BME280;7731;50.720;6.912;2023-02-11T01:57:50;101933.06;;;3.04;100.00
17072;BME280;7731;50.720;6.912;2023-02-11T02:00:32;101927.97;;;3.04;100.00
17072;BME280;7731;50.720;6.912;2023-02-11T02:03:08;101937.94;;;2.86;100.00
17072;BME280;7731;50.720;6.912;2023-02-11T02:05:50;101939.97;;;3.18;100.00
17072;BME280;7731;50.720;6.912;2023-02-11T02:08:29;101943.38;;;3.20;100.00
17072;BME280;7731;50.720;6.912;2023-02-11T02:11:00;101944.91;;;3.06;100.00
17072;BME280;7731;50.720;6.912;2023-02-11T02:13:33;101945.13;;;3.24;100.00
17072;BME280;7731;50.720;6.912;2023-02-11T02:16:12;101941.53;;;3.07;100.00
17072;BME280;7731;50.720;6.912;2023-02-11T02:18:52;101945.75;;;3.06;100.00
17072;BME280;7731;50.720;6.912;2023-02-11T02:25:18;101936.09;;;2.76;100.00
17072;BME280;7731;50.720;6.912;2023-02-11T02:28:14;101939.56;;;2.82;100.00
17072;BME280;7731;50.720;6.912;2023-02-11T02:31:43;101931.66;;;2.59;100.00
17072;BME280;7731;50.720;6.912;2023-02-11T02:34:27;101926.44;;;2.47;100.00
17072;BME280;7731;50.720;6.912;2023-02-11T02:37:09;101923.06;;;2.46;100.00
17072;BME280;7731;50.720;6.912;2023-02-11T02:39:44;101925.63;;;2.48;100.00
17072;BME280;7731;50.720;6.912;2023-02-11T02:42:19;101929.16;;;2.62;100.00
17072;BME280;7731;50.720;6.912;2023-02-11T02:44:52;101915.75;;;2.73;100.00
17072;BME280;7731;50.720;6.912;2023-02-11T02:47:22;101918.44;;;2.85;100.00
17072;BME280;7731;50.720;6.912;2023-02-11T02:49:55;101921.84;;;2.87;100.00
17072;BME280;7731;50.720;6.912;2023-02-11T02:52:38;101918.69;;;3.08;100.00
17072;BME280;7731;50.720;6.912;2023-02-11T02:55:32;101911.63;;;2.82;100.00
17072;BME280;7731;50.720;6.912;2023-02-11T02:58:57;101913.84;;;2.53;100.00
17072;BME280;7731;50.720;6.912;2023-02-11T03:01:41;101904.56;;;2.55;100.00
17072;BME280;7731;50.720;6.912;2023-02-11T03:04:22;101907.25;;;2.67;100.00
17072;BME280;7731;50.720;6.912;2023-02-11T03:07:04;101910.81;;;2.85;100.00
17072;BME280;7731;50.720;6.912;2023-02-11T03:09:45;101909.03;;;2.78;100.00
17072;BME280;7731;50.720;6.912;2023-02-11T03:12:19;101905.69;;;2.79;100.00
17072;BME280;7731;50.720;6.912;2023-02-11T03:14:51;101885.28;;;2.70;100.00
17072;BME280;7731;50.720;6.912;2023-02-11T03:17:23;101872.41;;;2.54;100.00
17072;BME280;7731;50.720;6.912;2023-02-11T03:19:57;101878.19;;;2.44;100.00
17072;BME280;7731;50.720;6.912;2023-02-11T03:22:37;101876.88;;;2.74;100.00
17072;BME280;7731;50.720;6.912;2023-02-11T03:25:09;101878.88;;;3.07;100.00
17072;BME280;7731;50.720;6.912;2023-02-11T03:27:46;101874.31;;;2.72;100.00
17072;BME280;7731;50.720;6.912;2023-02-11T03:30:26;101881.03;;;2.70;100.00
17072;BME280;7731;50.720;6.912;2023-02-11T03:33:06;101885.09;;;2.53;100.00
17072;BME280;7731;50.720;6.912;2023-02-11T03:35:44;101884.00;;;2.34;100.00
17072;BME280;7731;50.720;6.912;2023-02-11T03:38:24;101888.06;;;2.22;100.00
17072;BME280;7731;50.720;6.912;2023-02-11T03:40:59;101887.09;;;2.12;100.00
17072;BME280;7731;50.720;6.912;2023-02-11T03:43:34;101886.28;;;2.13;100.00
17072;BME280;7731;50.720;6.912;2023-02-11T03:46:07;101897.75;;;2.53;100.00
17072;BME280;7731;50.720;6.912;2023-02-11T03:48:42;101890.63;;;2.24;100.00
17072;BME280;7731;50.720;6.912;2023-02-11T03:51:15;101884.22;;;1.88;100.00
17072;BME280;7731;50.720;6.912;2023-02-11T03:53:54;101882.22;;;1.68;100.00
17072;BME280;7731;50.720;6.912;2023-02-11T03:56:32;101883.19;;;1.76;100.00
17072;BME280;7731;50.720;6.912;2023-02-11T03:59:04;101883.22;;;1.78;100.00
17072;BME280;7731;50.720;6.912;2023-02-11T04:01:34;101868.13;;;1.86;100.00
17072;BME280;7731;50.720;6.912;2023-02-11T04:04:05;101866.44;;;1.85;100.00
17072;BME280;7731;50.720;6.912;2023-02-11T04:06:35;101873.19;;;1.86;100.00
17072;BME280;7731;50.720;6.912;2023-02-11T04:09:09;101871.41;;;1.77;100.00
17072;BME280;7731;50.720;6.912;2023-02-11T04:11:41;101879.19;;;1.89;100.00
17072;BME280;7731;50.720;6.912;2023-02-11T04:14:11;101875.72;;;1.86;100.00
17072;BME280;7731;50.720;6.912;2023-02-11T04:16:41;101879.97;;;1.87;100.00
17072;BME280;7731;50.720;6.912;2023-02-11T04:19:11;101862.94;;;1.78;100.00
17072;BME280;7731;50.720;6.912;2023-02-11T04:21:41;101869.69;;;1.76;100.00
17072;BME280;7731;50.720;6.912;2023-02-11T04:24:14;101872.16;;;1.73;100.00
17072;BME280;7731;50.720;6.912;2023-02-11T04:26:44;101868.88;;;1.78;100.00
17072;BME280;7731;50.720;6.912;2023-02-11T04:29:14;101876.56;;;1.83;100.00
17072;BME280;7731;50.720;6.912;2023-02-11T04:31:45;101876.25;;;2.21;100.00
17072;BME280;7731;50.720;6.912;2023-02-11T04:34:15;101871.16;;;2.20;100.00
17072;BME280;7731;50.720;6.912;2023-02-11T04:36:45;101874.63;;;2.26;100.00
17072;BME280;7731;50.720;6.912;2023-02-11T04:39:18;101874.44;;;2.14;100.00
17072;BME280;7731;50.720;6.912;2023-02-11T04:41:49;101865.03;;;2.05;100.00
17072;BME280;7731;50.720;6.912;2023-02-11T04:44:20;101872.66;;;2.07;100.00
17072;BME280;7731;50.720;6.912;2023-02-11T04:46:50;101868.38;;;2.04;100.00
17072;BME280;7731;50.720;6.912;2023-02-11T04:49:20;101864.22;;;2.08;100.00
17072;BME280;7731;50.720;6.912;2023-02-11T04:51:50;101861.97;;;2.29;100.00
17072;BME280;7731;50.720;6.912;2023-02-11T04:54:25;101857.16;;;2.51;100.00
17072;BME280;7731;50.720;6.912;2023-02-11T04:56:55;101857.38;;;2.70;100.00
17072;BME280;7731;50.720;6.912;2023-02-11T04:59:25;101847.31;;;2.80;100.00
17072;BME280;7731;50.720;6.912;2023-02-11T05:01:55;101842.19;;;2.74;100.00
17072;BME280;7731;50.720;6.912;2023-02-11T05:04:26;101844.81;;;2.82;100.00
17072;BME280;7731;50.720;6.912;2023-02-11T05:06:56;101832.16;;;2.88;100.00
17072;BME280;7731;50.720;6.912;2023-02-11T05:09:28;101840.81;;;3.09;100.00
17072;BME280;7731;50.720;6.912;2023-02-11T05:11:59;101844.25;;;3.11;100.00
17072;BME280;7731;50.720;6.912;2023-02-11T05:14:29;101840.06;;;3.19;100.00
17072;BME280;7731;50.720;6.912;2023-02-11T05:16:59;101834.97;;;3.16;100.00
17072;BME280;7731;50.720;6.912;2023-02-11T05:19:29;101837.53;;;3.19;100.00
17072;BME280;7731;50.720;6.912;2023-02-11T05:22:00;101833.31;;;3.18;100.00
17072;BME280;7731;50.720;6.912;2023-02-11T05:24:33;101832.47;;;3.24;100.00
17072;BME280;7731;50.720;6.912;2023-02-11T05:27:03;101835.06;;;3.28;100.00
17072;BME280;7731;50.720;6.912;2023-02-11T05:29:34;101831.69;;;3.29;100.00
17072;BME280;7731;50.720;6.912;2023-02-11T05:32:04;101845.19;;;3.25;100.00
17072;BME280;7731;50.720;6.912;2023-02-11T05:34:35;101840.19;;;3.34;100.00
17072;BME280;7731;50.720;6.912;2023-02-11T05:37:05;101848.88;;;3.61;100.00
17072;BME280;7731;50.720;6.912;2023-02-11T05:39:46;101857.41;;;3.72;100.00
17072;BME280;7731;50.720;6.912;2023-02-11T05:42:16;101849.81;;;3.77;100.00
17072;BME280;7731;50.720;6.912;2023-02-11T05:44:46;101838.06;;;4.01;100.00
17072;BME280;7731;50.720;6.912;2023-02-11T05:47:16;101842.19;;;3.79;100.00
17072;BME280;7731;50.720;6.912;2023-02-11T05:49:47;101842.16;;;3.69;100.00
17072;BME280;7731;50.720;6.912;2023-02-11T05:52:17;101835.44;;;3.84;100.00
17072;BME280;7731;50.720;6.912;2023-02-11T05:54:50;101829.47;;;3.72;100.00
17072;BME280;7731;50.720;6.912;2023-02-11T05:57:20;101833.69;;;3.69;100.00
17072;BME280;7731;50.720;6.912;2023-02-11T05:59:50;101828.63;;;3.75;100.00
17072;BME280;7731;50.720;6.912;2023-02-11T06:02:20;101824.41;;;3.80;100.00
17072;BME280;7731;50.720;6.912;2023-02-11T06:04:50;101818.75;;;4.37;100.00
17072;BME280;7731;50.720;6.912;2023-02-11T06:07:21;101828.03;;;4.22;100.00
17072;BME280;7731;50.720;6.912;2023-02-11T06:09:53;101819.41;;;3.96;100.00
17072;BME280;7731;50.720;6.912;2023-02-11T06:12:24;101812.56;;;3.82;100.00
17072;BME280;7731;50.720;6.912;2023-02-11T06:14:54;101809.19;;;3.86;100.00
17072;BME280;7731;50.720;6.912;2023-02-11T06:17:24;101809.28;;;4.02;100.00
17072;BME280;7731;50.720;6.912;2023-02-11T06:19:58;101813.66;;;4.32;100.00
17072;BME280;7731;50.720;6.912;2023-02-11T06:22:29;101811.06;;;4.18;100.00
17072;BME280;7731;50.720;6.912;2023-02-11T06:25:04;101811.78;;;3.97;100.00
17072;BME280;7731;50.720;6.912;2023-02-11T06:27:35;101810.09;;;3.96;100.00
17072;BME280;7731;50.720;6.912;2023-02-11T06:30:07;101808.59;;;4.43;100.00
17072;BME280;7731;50.720;6.912;2023-02-11T06:32:38;101809.41;;;4.40;100.00
17072;BME280;7731;50.720;6.912;2023-02-11T06:35:11;101808.50;;;4.18;100.00
17072;BME280;7731;50.720;6.912;2023-02-11T06:37:41;101808.50;;;4.14;100.00
17072;BME280;7731;50.720;6.912;2023-02-11T06:40:21;101810.09;;;3.96;100.00
17072;BME280;7731;50.720;6.912;2023-02-11T06:42:54;101813.50;;;3.98;100.00
17072;BME280;7731;50.720;6.912;2023-02-11T06:45:24;101810.09;;;3.96;100.00
17072;BME280;7731;50.720;6.912;2023-02-11T06:47:54;101819.41;;;3.96;100.00
17072;BME280;7731;50.720;6.912;2023-02-11T06:50:27;101828.75;;;3.98;100.00
17072;BME280;7731;50.720;6.912;2023-02-11T06:52:58;101838.94;;;4.01;100.00
17072;BME280;7731;50.720;6.912;2023-02-11T06:55:31;101833.03;;;4.10;100.00
17072;BME280;7731;50.720;6.912;2023-02-11T06:58:05;101833.91;;;4.14;100.00
17072;BME280;7731;50.720;6.912;2023-02-11T07:00:36;101837.34;;;4.25;100.00
17072;BME280;7731;50.720;6.912;2023-02-11T07:03:07;101841.53;;;4.09;100.00
17072;BME280;7731;50.720;6.912;2023-02-11T07:05:41;101849.19;;;4.17;100.00
17072;BME280;7731;50.720;6.912;2023-02-11T07:08:12;101846.63;;;4.07;100.00
17072;BME280;7731;50.720;6.912;2023-02-11T07:10:44;101845.84;;;4.24;100.00
17072;BME280;7731;50.720;6.912;2023-02-11T07:13:17;101845.88;;;4.33;100.00
17072;BME280;7731;50.720;6.912;2023-02-11T07:15:48;101847.53;;;4.28;100.00
17072;BME280;7731;50.720;6.912;2023-02-11T07:18:19;101852.59;;;4.19;100.00
17072;BME280;7731;50.720;6.912;2023-02-11T07:20:54;101856.06;;;4.33;100.00
17072;BME280;7731;50.720;6.912;2023-02-11T07:23:24;101860.34;;;4.46;100.00
17072;BME280;7731;50.720;6.912;2023-02-11T07:25:57;101862.97;;;4.71;100.00
17072;BME280;7731;50.720;6.912;2023-02-11T07:28:27;101866.38;;;4.73;100.00
17072;BME280;7731;50.720;6.912;2023-02-11T07:30:57;101867.19;;;4.63;100.00
17072;BME280;7731;50.720;6.912;2023-02-11T07:33:28;101865.50;;;4.65;100.00
17072;BME280;7731;50.720;6.912;2023-02-11T07:35:59;101871.44;;;4.58;100.00
17072;BME280;7731;50.720;6.912;2023-02-11T07:38:31;101874.78;;;4.46;100.00
17072;BME280;7731;50.720;6.912;2023-02-11T07:41:07;101873.94;;;4.45;100.00
17072;BME280;7731;50.720;6.912;2023-02-11T07:43:38;101881.59;;;4.58;100.00
17072;BME280;7731;50.720;6.912;2023-02-11T07:46:12;101872.22;;;4.44;100.00
17072;BME280;7731;50.720;6.912;2023-02-11T07:48:42;101882.44;;;4.52;100.00
17072;BME280;7731;50.720;6.912;2023-02-11T07:51:15;101884.94;;;4.47;100.00
17072;BME280;7731;50.720;6.912;2023-02-11T07:53:46;101879.00;;;4.41;100.00
17072;BME280;7731;50.720;6.912;2023-02-11T07:56:21;101883.25;;;4.50;100.00
17072;BME280;7731;50.720;6.912;2023-02-11T07:58:51;101884.94;;;4.47;100.00
17072;BME280;7731;50.720;6.912;2023-02-11T08:01:24;101880.66;;;4.34;100.00
17072;BME280;7731;50.720;6.912;2023-02-11T08:03:57;101884.94;;;4.41;100.00
17072;BME280;7731;50.720;6.912;2023-02-11T08:06:30;101889.16;;;4.38;100.00
17072;BME280;7731;50.720;6.912;2023-02-11T08:09:05;101891.81;;;4.62;100.00
17072;BME280;7731;50.720;6.912;2023-02-11T08:11:38;101894.41;;;4.76;100.00
17072;BME280;7731;50.720;6.912;2023-02-11T08:14:09;101896.94;;;4.78;100.00
17072;BME280;7731;50.720;6.912;2023-02-11T08:16:41;101892.66;;;4.69;100.00
17072;BME280;7731;50.720;6.912;2023-02-11T08:19:14;101896.06;;;4.68;100.00
17072;BME280;7731;50.720;6.912;2023-02-11T08:21:44;101897.78;;;4.77;100.00
17072;BME280;7731;50.720;6.912;2023-02-11T08:24:15;101900.38;;;4.89;100.00
17072;BME280;7731;50.720;6.912;2023-02-11T08:26:48;101908.84;;;4.93;100.00
17072;BME280;7731;50.720;6.912;2023-02-11T08:29:19;101904.59;;;4.82;100.00
17072;BME280;7731;50.720;6.912;2023-02-11T08:31:49;101907.16;;;4.92;100.00
17072;BME280;7731;50.720;6.912;2023-02-11T08:34:19;101909.69;;;4.86;100.00
17072;BME280;7731;50.720;6.912;2023-02-11T08:36:49;101919.88;;;4.79;100.00
17072;BME280;7731;50.720;6.912;2023-02-11T08:39:21;101913.88;;;4.71;100.00
17072;BME280;7731;50.720;6.912;2023-02-11T08:41:54;101913.88;;;4.68;100.00
17072;BME280;7731;50.720;6.912;2023-02-11T08:44:25;101922.41;;;4.79;100.00
17072;BME280;7731;50.720;6.912;2023-02-11T08:46:56;101919.03;;;4.93;100.00
17072;BME280;7731;50.720;6.912;2023-02-11T08:49:26;101919.91;;;4.98;100.00
17072;BME280;7731;50.720;6.912;2023-02-11T08:51:56;101924.13;;;4.96;100.00
17072;BME280;7731;50.720;6.912;2023-02-11T08:54:30;101926.75;;;5.21;100.00
17072;BME280;7731;50.720;6.912;2023-02-11T08:57:04;101925.94;;;5.43;100.00
17072;BME280;7731;50.720;6.912;2023-02-11T08:59:34;101926.78;;;5.33;100.00
17072;BME280;7731;50.720;6.912;2023-02-11T09:02:10;101925.91;;;5.15;100.00
17072;BME280;7731;50.720;6.912;2023-02-11T09:04:41;101935.25;;;5.24;100.00
17072;BME280;7731;50.720;6.912;2023-02-11T09:07:11;101923.38;;;5.26;100.00
17072;BME280;7731;50.720;6.912;2023-02-11T09:09:41;101935.25;;;5.19;100.00
17072;BME280;7731;50.720;6.912;2023-02-11T09:12:14;101937.81;;;5.26;100.00
17072;BME280;7731;50.720;6.912;2023-02-11T09:14:45;101946.31;;;5.34;100.00
17072;BME280;7731;50.720;6.912;2023-02-11T09:17:15;101938.63;;;5.09;100.00
17072;BME280;7731;50.720;6.912;2023-02-11T09:19:45;101938.63;;;5.06;100.00
17072;BME280;7731;50.720;6.912;2023-02-11T09:22:16;101939.47;;;5.08;100.00
17072;BME280;7731;50.720;6.912;2023-02-11T09:24:46;101941.19;;;5.18;100.00
17072;BME280;7731;50.720;6.912;2023-02-11T09:27:19;101956.47;;;5.18;100.00
17072;BME280;7731;50.720;6.912;2023-02-11T09:29:49;101962.38;;;5.07;100.00
17072;BME280;7731;50.720;6.912;2023-02-11T09:32:19;101958.97;;;4.97;100.00
17072;BME280;7731;50.720;6.912;2023-02-11T09:34:50;101963.22;;;5.01;100.00
17072;BME280;7731;50.720;6.912;2023-02-11T09:37:20;101959.81;;;5.05;100.00
17072;BME280;7731;50.720;6.912;2023-02-11T09:39:50;101967.47;;;5.07;100.00
17072;BME280;7731;50.720;6.912;2023-02-11T09:42:41;101966.66;;;5.12;100.00
17072;BME280;7731;50.720;6.912;2023-02-11T09:45:18;101965.88;;;5.35;100.00
17072;BME280;7731;50.720;6.912;2023-02-11T09:47:55;101965.03;;;5.45;100.00
17072;BME280;7731;50.720;6.912;2023-02-11T09:50:32;101959.94;;;5.51;100.00
17072;BME280;7731;50.720;6.912;2023-02-11T09:53:09;101962.47;;;5.36;100.00
17072;BME280;7731;50.720;6.912;2023-02-11T09:55:44;101958.25;;;5.57;100.00
17072;BME280;7731;50.720;6.912;2023-02-11T09:58:24;101961.63;;;5.52;100.00
17072;BME280;7731;50.720;6.912;2023-02-11T10:01:05;101956.53;;;5.62;100.00
17072;BME280;7731;50.720;6.912;2023-02-11T10:04:03;101957.41;;;5.85;100.00
17072;BME280;7731;50.720;6.912;2023-02-11T10:06:43;101973.53;;;5.69;100.00
17072;BME280;7731;50.720;6.912;2023-02-11T10:09:40;101968.44;;;5.60;100.00
17072;BME280;7731;50.720;6.912;2023-02-11T10:12:33;101972.69;;;5.67;100.00
17072;BME280;7731;50.720;6.912;2023-02-11T10:15:28;101973.53;;;5.72;100.00
17072;BME280;7731;50.720;6.912;2023-02-11T10:18:36;101971.00;;;6.06;100.00
17072;BME280;7731;50.720;6.912;2023-02-11T10:21:21;101979.47;;;5.91;100.00
17072;BME280;7731;50.720;6.912;2023-02-11T10:23:59;101972.69;;;5.92;100.00
17072;BME280;7731;50.720;6.912;2023-02-11T10:26:33;101982.06;;;5.99;100.00
17072;BME280;7731;50.720;6.912;2023-02-11T10:29:32;101976.09;;;6.11;100.00
17072;BME280;7731;50.720;6.912;2023-02-11T10:32:26;101979.41;;;6.67;100.00
17072;BME280;7731;50.720;6.912;2023-02-11T10:35:03;101974.31;;;6.57;100.00
17072;BME280;7731;50.720;6.912;2023-02-11T10:37:41;101973.34;;;6.86;100.00
17072;BME280;7731;50.720;6.912;2023-02-11T10:40:16;101969.84;;;7.07;100.00
17072;BME280;7731;50.720;6.912;2023-02-11T10:42:49;101966.56;;;6.82;100.00
17072;BME280;7731;50.720;6.912;2023-02-11T10:45:29;101962.91;;;7.25;100.00
17072;BME280;7731;50.720;6.912;2023-02-11T10:48:06;101971.53;;;7.10;100.00
17072;BME280;7731;50.720;6.912;2023-02-11T10:51:13;101973.28;;;6.98;100.00
17072;BME280;7731;50.720;6.912;2023-02-11T10:53:46;101974.94;;;7.12;100.00
17072;BME280;7731;50.720;6.912;2023-02-11T10:56:33;101991.03;;;7.23;100.00
17072;BME280;7731;50.720;6.912;2023-02-11T10:59:16;101981.78;;;7.04;100.00
17072;BME280;7731;50.720;6.912;2023-02-11T11:01:54;101981.72;;;7.16;100.00
17072;BME280;7731;50.720;6.912;2023-02-11T11:04:39;101984.09;;;7.48;100.00
17072;BME280;7731;50.720;6.912;2023-02-11T11:07:17;101984.78;;;7.67;100.00
17072;BME280;7731;50.720;6.912;2023-02-11T11:09:51;101985.81;;;7.48;100.00
17072;BME280;7731;50.720;6.912;2023-02-11T11:12:27;101978.19;;;7.32;100.00
17072;BME280;7731;50.720;6.912;2023-02-11T11:15:00;101978.25;;;7.23;100.00
17072;BME280;7731;50.720;6.912;2023-02-11T11:17:31;101971.59;;;7.02;100.00
17072;BME280;7731;50.720;6.912;2023-02-11T11:20:31;101971.59;;;7.01;100.00
17072;BME280;7731;50.720;6.912;2023-02-11T11:23:16;101975.91;;;6.85;100.00
17072;BME280;7731;50.720;6.912;2023-02-11T11:26:03;101974.19;;;6.93;100.00
17072;BME280;7731;50.720;6.912;2023-02-11T11:28:39;101969.03;;;6.99;100.00
17072;BME280;7731;50.720;6.912;2023-02-11T11:31:17;101974.28;;;6.73;100.00
17072;BME280;7731;50.720;6.912;2023-02-11T11:34:22;101966.56;;;6.79;100.00
17072;BME280;7731;50.720;6.912;2023-02-11T11:37:22;101968.31;;;6.68;100.00
17072;BME280;7731;50.720;6.912;2023-02-11T11:39:59;101965.78;;;6.57;100.00
17072;BME280;7731;50.720;6.912;2023-02-11T11:42:35;101960.69;;;6.57;100.00
17072;BME280;7731;50.720;6.912;2023-02-11T11:45:25;101965.00;;;6.44;100.00
17072;BME280;7731;50.720;6.912;2023-02-11T11:48:00;101967.56;;;6.39;100.00
17072;BME280;7731;50.720;6.912;2023-02-11T11:50:36;101968.38;;;6.49;100.00
17072;BME280;7731;50.720;6.912;2023-02-11T11:53:21;101967.53;;;6.50;100.00
17072;BME280;7731;50.720;6.912;2023-02-11T11:55:59;101955.53;;;6.68;100.00
17072;BME280;7731;50.720;6.912;2023-02-11T11:58:32;101954.63;;;6.84;100.00
17072;BME280;7731;50.720;6.912;2023-02-11T12:01:38;101942.72;;;6.80;100.00
17072;BME280;7731;50.720;6.912;2023-02-11T12:04:46;101944.31;;;7.01;100.00
17072;BME280;7731;50.720;6.912;2023-02-11T12:07:37;101943.56;;;6.82;100.00
17072;BME280;7731;50.720;6.912;2023-02-11T12:10:38;101949.44;;;6.96;100.00
17072;BME280;7731;50.720;6.912;2023-02-11T12:13:46;101948.66;;;6.88;100.00
17072;BME280;7731;50.720;6.912;2023-02-11T12:16:32;101954.59;;;6.90;100.00
17072;BME280;7731;50.720;6.912;2023-02-11T12:19:36;101959.78;;;6.72;100.00
17072;BME280;7731;50.720;6.912;2023-02-11T12:22:32;101958.84;;;6.94;100.00
17072;BME280;7731;50.720;6.912;2023-02-11T12:25:24;101952.03;;;6.89;100.00
17072;BME280;7731;50.720;6.912;2023-02-11T12:28:33;101964.00;;;6.84;100.00
17072;BME280;7731;50.720;6.912;2023-02-11T12:31:44;101970.00;;;6.72;100.00
17072;BME280;7731;50.720;6.912;2023-02-11T12:34:44;101974.19;;;6.88;100.00
17072;BME280;7731;50.720;6.912;2023-02-11T12:37:39;101966.59;;;6.76;100.00
17072;BME280;7731;50.720;6.912;2023-02-11T12:40:17;101966.63;;;6.70;100.00
17072;BME280;7731;50.720;6.912;2023-02-11T12:43:11;101966.56;;;6.79;100.00
17072;BME280;7731;50.720;6.912;2023-02-11T12:46:26;101966.44;;;7.07;100.00
17072;BME280;7731;50.720;6.912;2023-02-11T12:52:24;101975.03;;;6.90;100.00
17072;BME280;7731;50.720;6.912;2023-02-11T12:55:03;101972.44;;;6.96;100.00
17072;BME280;7731;50.720;6.912;2023-02-11T12:57:43;101976.81;;;6.77;100.00
17072;BME280;7731;50.720;6.912;2023-02-11T13:00:22;101969.91;;;6.93;100.00
17072;BME280;7731;50.720;6.912;2023-02-11T13:03:00;101971.69;;;6.76;100.00
17072;BME280;7731;50.720;6.912;2023-02-11T13:05:41;101963.94;;;6.96;100.00
17072;BME280;7731;50.720;6.912;2023-02-11T13:08:22;101960.53;;;6.95;100.00
17072;BME280;7731;50.720;6.912;2023-02-11T13:10:58;101960.56;;;6.89;100.00
17072;BME280;7731;50.720;6.912;2023-02-11T13:13:38;101951.25;;;6.76;100.00
17072;BME280;7731;50.720;6.912;2023-02-11T13:16:32;101955.50;;;6.75;100.00
17072;BME280;7731;50.720;6.912;2023-02-11T13:19:20;101952.97;;;6.68;100.00
17072;BME280;7731;50.720;6.912;2023-02-11T13:22:07;101957.22;;;6.72;100.00
17072;BME280;7731;50.720;6.912;2023-02-11T13:24:43;101954.75;;;6.50;100.00
17072;BME280;7731;50.720;6.912;2023-02-11T13:27:29;101964.97;;;6.50;100.00
17072;BME280;7731;50.720;6.912;2023-02-11T13:30:26;101953.91;;;6.57;100.00
17072;BME280;7731;50.720;6.912;2023-02-11T13:36:27;101952.94;;;6.77;100.00
17072;BME280;7731;50.720;6.912;2023-02-11T13:39:03;101948.75;;;6.64;100.00
17072;BME280;7731;50.720;6.912;2023-02-11T13:41:40;101953.88;;;6.59;100.00
17072;BME280;7731;50.720;6.912;2023-02-11T13:44:24;101959.00;;;6.60;100.00
17072;BME280;7731;50.720;6.912;2023-02-11T13:47:00;101962.34;;;6.67;100.00
17072;BME280;7731;50.720;6.912;2023-02-11T13:49:37;101961.56;;;6.51;100.00
17072;BME280;7731;50.720;6.912;2023-02-11T13:52:23;101951.31;;;6.60;100.00
17072;BME280;7731;50.720;6.912;2023-02-11T13:55:05;101953.84;;;6.73;100.00
17072;BME280;7731;50.720;6.912;2023-02-11T13:57:39;101952.94;;;6.80;100.00
17072;BME280;7731;50.720;6.912;2023-02-11T14:00:47;101960.56;;;6.86;100.00